createdAt,value
2022-08-07T00:00:25.047Z,8.23
2022-08-07T00:02:53.496Z,5.75
2022-08-07T00:05:23.564Z,5.93
2022-08-07T00:07:59.573Z,5.65
2022-08-07T00:10:30.611Z,6.43
2022-08-07T00:13:02.043Z,6.45
2022-08-07T00:15:37.698Z,5.32
2022-08-07T00:18:06.296Z,5.82
2022-08-07T00:20:34.250Z,5.43
2022-08-07T00:23:01.711Z,4.97
2022-08-07T00:25:29.015Z,5.50
2022-08-07T00:28:07.745Z,6.53
2022-08-07T00:30:34.905Z,5.45
2022-08-07T00:33:03.547Z,6.20
2022-08-07T00:35:31.012Z,5.03
2022-08-07T00:38:02.343Z,5.38
2022-08-07T00:40:38.963Z,5.22
2022-08-07T00:44:01.888Z,7.63
2022-08-07T00:46:01.802Z,4.82
2022-08-07T00:48:32.005Z,4.68
2022-08-07T00:51:01.350Z,5.35
2022-08-07T00:53:38.945Z,7.75
2022-08-07T00:56:16.150Z,4.30
2022-08-07T00:58:47.403Z,5.28
2022-08-07T01:01:18.525Z,4.93
2022-08-07T01:03:55.359Z,6.65
2022-08-07T01:06:25.375Z,5.88
2022-08-07T01:08:53.825Z,5.95
2022-08-07T01:12:04.372Z,4.53
2022-08-07T01:14:10.989Z,5.80
2022-08-07T01:16:38.586Z,5.93
2022-08-07T01:19:18.195Z,5.20
2022-08-07T01:21:49.165Z,6.28
2022-08-07T01:24:21.260Z,5.88
2022-08-07T01:26:54.037Z,5.68
2022-08-07T01:29:28.007Z,5.30
2022-08-07T01:31:59.652Z,5.22
2022-08-07T01:34:31.212Z,8.13
2022-08-07T01:36:58.816Z,5.35
2022-08-07T01:39:41.030Z,6.15
2022-08-07T01:42:40.150Z,5.95
2022-08-07T01:45:04.784Z,7.25
2022-08-07T01:48:17.762Z,6.15
2022-08-07T01:50:29.011Z,5.60
2022-08-07T01:52:59.066Z,5.70
2022-08-07T01:55:29.647Z,4.85
2022-08-07T01:58:27.012Z,6.10
2022-08-07T02:00:57.959Z,5.88
2022-08-07T02:03:48.931Z,5.40
2022-08-07T02:06:31.295Z,6.55
2022-08-07T02:09:03.602Z,6.03
2022-08-07T02:12:04.213Z,9.88
2022-08-07T02:14:36.232Z,5.57
2022-08-07T02:17:11.272Z,6.15
2022-08-07T02:20:07.057Z,5.72
2022-08-07T02:22:30.760Z,8.05
2022-08-07T02:24:58.899Z,6.07
2022-08-07T02:27:34.229Z,5.82
2022-08-07T02:30:07.134Z,6.35
2022-08-07T02:32:38.726Z,8.57
2022-08-07T02:35:10.900Z,6.22
2022-08-07T02:37:44.240Z,5.60
2022-08-07T02:40:33.270Z,5.53
2022-08-07T02:43:00.322Z,6.50
2022-08-07T02:45:58.028Z,6.93
2022-08-07T02:48:16.742Z,6.45
2022-08-07T02:50:51.179Z,7.40
2022-08-07T02:53:27.597Z,5.57
2022-08-07T02:56:03.623Z,6.00
2022-08-07T02:58:33.815Z,5.93
2022-08-07T03:01:03.282Z,7.47
2022-08-07T03:03:48.978Z,6.50
2022-08-07T03:06:32.166Z,5.68
2022-08-07T03:09:04.460Z,6.30
2022-08-07T03:11:38.842Z,6.50
2022-08-07T03:14:22.473Z,7.82
2022-08-07T03:16:52.351Z,10.18
2022-08-07T03:19:20.807Z,9.88
2022-08-07T03:21:50.790Z,10.73
2022-08-07T03:24:26.818Z,8.95
2022-08-07T03:27:00.499Z,6.95
2022-08-07T03:29:51.077Z,7.75
2022-08-07T03:32:33.994Z,7.40
2022-08-07T03:35:18.364Z,7.32
2022-08-07T03:37:56.721Z,7.40
2022-08-07T03:40:27.569Z,7.28
2022-08-07T03:42:59.020Z,8.00
2022-08-07T03:45:30.711Z,7.20
2022-08-07T03:47:59.540Z,10.45
2022-08-07T03:50:28.714Z,8.20
2022-08-07T03:52:59.728Z,7.68
2022-08-07T03:55:58.466Z,7.60
2022-08-07T03:59:05.735Z,8.48
2022-08-07T04:01:07.420Z,8.57
2022-08-07T04:03:49.954Z,7.45
2022-08-07T04:06:37.349Z,7.25
2022-08-07T04:09:08.440Z,8.15
2022-08-07T04:12:27.985Z,8.13
2022-08-07T04:14:37.333Z,10.15
2022-08-07T04:17:05.523Z,8.07
2022-08-07T04:19:54.595Z,9.23
2022-08-07T04:22:29.172Z,7.75
2022-08-07T04:25:01.211Z,6.95
2022-08-07T04:27:35.704Z,7.57
2022-08-07T04:30:11.820Z,6.63
2022-08-07T04:32:44.676Z,8.57
2022-08-07T04:35:12.786Z,9.65
2022-08-07T04:38:03.398Z,9.70
2022-08-07T04:40:30.058Z,6.78
2022-08-07T04:43:02.124Z,6.78
2022-08-07T04:46:00.944Z,6.70
2022-08-07T04:48:44.730Z,9.07
2022-08-07T04:51:36.420Z,6.97
2022-08-07T04:54:33.722Z,8.73
2022-08-07T04:58:10.763Z,7.18
2022-08-07T05:00:30.452Z,7.43
2022-08-07T05:03:17.108Z,6.63
2022-08-07T05:06:20.071Z,6.93
2022-08-07T05:09:18.470Z,7.50
2022-08-07T05:12:12.023Z,9.20
2022-08-07T05:14:59.237Z,9.63
2022-08-07T05:17:51.776Z,7.00
2022-08-07T05:20:25.730Z,9.40
2022-08-07T05:22:58.282Z,6.47
2022-08-07T05:25:54.333Z,7.07
2022-08-07T05:28:22.732Z,6.72
2022-08-07T05:30:53.421Z,5.20
2022-08-07T05:33:21.647Z,10.73
2022-08-07T05:35:51.925Z,5.03
2022-08-07T05:39:00.607Z,5.18
2022-08-07T05:41:12.408Z,4.80
2022-08-07T05:43:43.458Z,4.88
2022-08-07T05:46:30.615Z,4.95
2022-08-07T05:48:59.401Z,5.03
2022-08-07T05:51:31.828Z,5.57
2022-08-07T05:54:13.701Z,5.75
2022-08-07T05:56:51.280Z,6.43
2022-08-07T05:59:21.196Z,5.78
2022-08-07T06:01:49.610Z,8.40
2022-08-07T06:04:21.476Z,4.80
2022-08-07T06:07:03.803Z,4.70
2022-08-07T06:10:03.875Z,4.78
2022-08-07T06:12:31.711Z,6.47
2022-08-07T06:15:05.767Z,4.75
2022-08-07T06:17:38.160Z,5.18
2022-08-07T06:20:12.411Z,4.70
2022-08-07T06:23:01.786Z,4.43
2022-08-07T06:25:34.913Z,4.75
2022-08-07T06:28:08.600Z,6.30
2022-08-07T06:30:37.938Z,5.80
2022-08-07T06:33:16.607Z,6.22
2022-08-07T06:35:48.229Z,5.97
2022-08-07T06:38:31.503Z,6.22
2022-08-07T06:41:00.524Z,6.90
2022-08-07T06:43:39.481Z,6.72
2022-08-07T06:46:12.515Z,5.32
2022-08-07T06:48:42.210Z,8.55
2022-08-07T06:51:31.152Z,6.45
2022-08-07T06:55:27.919Z,6.65
2022-08-07T06:56:55.154Z,8.63
2022-08-07T07:00:12.872Z,7.13
2022-08-07T07:02:49.280Z,8.82
2022-08-07T07:05:12.585Z,7.90
2022-08-07T07:07:58.997Z,7.55
2022-08-07T07:10:33.442Z,8.15
2022-08-07T07:13:13.240Z,8.32
2022-08-07T07:15:43.687Z,7.20
2022-08-07T07:18:48.225Z,8.15
2022-08-07T07:21:40.432Z,7.97
2022-08-07T07:24:17.585Z,6.88
2022-08-07T07:26:51.728Z,7.68
2022-08-07T07:29:39.769Z,6.80
2022-08-07T07:32:12.171Z,6.47
2022-08-07T07:34:49.845Z,6.38
2022-08-07T07:37:44.219Z,7.28
2022-08-07T07:40:14.801Z,5.63
2022-08-07T07:42:51.042Z,5.80
2022-08-07T07:46:39.706Z,5.93
2022-08-07T07:48:34.761Z,6.03
2022-08-07T07:51:07.982Z,6.22
2022-08-07T07:53:51.830Z,5.75
2022-08-07T07:56:30.458Z,6.47
2022-08-07T07:59:01.618Z,5.85
2022-08-07T08:02:01.888Z,5.85
2022-08-07T08:04:20.170Z,5.97
2022-08-07T08:06:54.303Z,5.20
2022-08-07T08:09:25.195Z,5.57
2022-08-07T08:12:02.200Z,5.30
2022-08-07T08:14:36.644Z,5.20
2022-08-07T08:17:56.521Z,5.05
2022-08-07T08:20:17.470Z,5.47
2022-08-07T08:23:08.138Z,4.90
2022-08-07T08:25:58.264Z,5.75
2022-08-07T08:28:38.268Z,4.60
2022-08-07T08:31:13.871Z,5.75
2022-08-07T08:33:49.680Z,5.40
2022-08-07T08:36:30.047Z,5.68
2022-08-07T08:39:02.118Z,6.18
2022-08-07T08:41:57.170Z,5.53
2022-08-07T08:44:44.958Z,6.07
2022-08-07T08:47:25.248Z,4.88
2022-08-07T08:50:02.715Z,5.90
2022-08-07T08:52:40.626Z,5.15
2022-08-07T08:55:55.064Z,4.53
2022-08-07T08:58:43.379Z,5.60
2022-08-07T09:01:40.174Z,8.88
2022-08-07T09:04:41.106Z,4.68
2022-08-07T09:07:22.952Z,4.57
2022-08-07T09:10:12.104Z,4.18
2022-08-07T09:12:57.945Z,4.70
2022-08-07T09:16:23.252Z,5.22
2022-08-07T09:19:03.627Z,4.32
2022-08-07T09:22:10.031Z,3.97
2022-08-07T09:25:01.549Z,4.38
2022-08-07T09:28:02.904Z,4.43
2022-08-07T09:30:37.821Z,3.92
2022-08-07T09:33:53.075Z,3.35
2022-08-07T09:36:35.665Z,3.88
2022-08-07T09:39:53.954Z,4.00
2022-08-07T09:42:33.400Z,5.10
2022-08-07T09:47:27.670Z,3.95
2022-08-07T09:48:18.971Z,3.90
2022-08-07T09:51:00.538Z,4.18
2022-08-07T09:53:41.353Z,5.00
2022-08-07T09:56:39.342Z,6.13
2022-08-07T09:59:44.630Z,5.13
2022-08-07T10:02:29.577Z,5.97
2022-08-07T10:05:12.682Z,8.13
2022-08-07T10:07:55.226Z,5.63
2022-08-07T10:11:16.786Z,9.30
2022-08-07T10:14:31.164Z,5.43
2022-08-07T10:17:16.673Z,5.80
2022-08-07T10:19:56.119Z,6.47
2022-08-07T10:22:32.211Z,6.35
2022-08-07T10:25:23.023Z,9.07
2022-08-07T10:28:20.020Z,6.80
2022-08-07T10:31:15.113Z,6.90
2022-08-07T10:34:17.909Z,5.72
2022-08-07T10:37:12.650Z,5.85
2022-08-07T10:40:03.431Z,7.18
2022-08-07T10:43:10.944Z,7.55
2022-08-07T10:45:44.376Z,7.05
2022-08-07T10:48:36.679Z,6.88
2022-08-07T10:51:16.831Z,6.65
2022-08-07T10:54:17.378Z,9.20
2022-08-07T10:56:48.242Z,6.57
2022-08-07T10:59:30.434Z,6.55
2022-08-07T11:02:35.904Z,6.88
2022-08-07T11:05:50.529Z,6.45
2022-08-07T11:08:39.000Z,6.43
2022-08-07T11:11:24.598Z,6.97
2022-08-07T11:14:45.144Z,7.63
2022-08-07T11:16:56.773Z,6.65
2022-08-07T11:19:46.415Z,6.25
2022-08-07T11:22:27.211Z,6.07
2022-08-07T11:25:20.205Z,5.70
2022-08-07T11:28:03.283Z,5.95
2022-08-07T11:30:58.613Z,5.72
2022-08-07T11:34:00.398Z,5.63
2022-08-07T11:36:31.204Z,5.53
2022-08-07T11:39:19.779Z,5.70
2022-08-07T11:42:18.722Z,5.80
2022-08-07T11:44:58.219Z,5.65
2022-08-07T11:47:58.908Z,5.68
2022-08-07T11:50:36.892Z,5.20
2022-08-07T11:53:35.790Z,5.25
2022-08-07T11:56:33.461Z,5.00
2022-08-07T12:00:12.466Z,5.38
2022-08-07T12:02:59.829Z,7.38
2022-08-07T12:05:47.643Z,5.07
2022-08-07T12:08:35.095Z,6.20
2022-08-07T12:11:20.428Z,7.20
2022-08-07T12:13:55.505Z,6.15
2022-08-07T12:16:50.533Z,5.75
2022-08-07T12:19:35.714Z,6.25
2022-08-07T12:22:58.849Z,5.32
2022-08-07T12:26:23.543Z,5.60
2022-08-07T12:29:09.377Z,5.05
2022-08-07T12:32:01.768Z,5.70
2022-08-07T12:34:34.764Z,5.68
2022-08-07T12:37:08.146Z,5.07
2022-08-07T12:39:44.272Z,5.65
2022-08-07T12:42:27.037Z,4.85
2022-08-07T12:44:58.081Z,4.65
2022-08-07T12:47:55.725Z,4.82
2022-08-07T12:50:49.360Z,5.53
2022-08-07T12:54:37.158Z,6.80
2022-08-07T12:56:34.631Z,4.40
2022-08-07T12:59:08.358Z,5.57
2022-08-07T13:02:09.991Z,4.57
2022-08-07T13:05:02.379Z,4.40
2022-08-07T13:08:12.002Z,3.88
2022-08-07T13:11:08.585Z,3.25
2022-08-07T13:13:54.260Z,4.25
2022-08-07T13:16:42.474Z,3.72
2022-08-07T13:19:50.942Z,4.00
2022-08-07T13:22:52.603Z,10.68
2022-08-07T13:25:32.372Z,3.95
2022-08-07T13:28:12.757Z,5.35
2022-08-07T13:30:44.391Z,5.53
2022-08-07T13:34:33.887Z,5.30
2022-08-07T13:36:17.355Z,3.70
2022-08-07T13:38:50.296Z,3.60
2022-08-07T13:41:47.476Z,3.58
2022-08-07T13:44:17.151Z,5.03
2022-08-07T13:46:57.664Z,3.88
2022-08-07T13:50:34.238Z,3.25
2022-08-07T13:52:26.413Z,3.00
2022-08-07T13:55:06.936Z,3.17
2022-08-07T13:57:38.538Z,3.80
2022-08-07T14:00:08.535Z,2.65
2022-08-07T14:02:56.971Z,2.83
2022-08-07T14:05:28.965Z,5.55
2022-08-07T14:08:05.449Z,4.25
2022-08-07T14:10:41.954Z,2.70
2022-08-07T14:13:11.578Z,4.13
2022-08-07T14:15:40.723Z,3.38
2022-08-07T14:18:29.074Z,2.75
2022-08-07T14:21:11.600Z,2.78
2022-08-07T14:24:01.977Z,2.60
2022-08-07T14:26:36.911Z,2.85
2022-08-07T14:30:03.039Z,2.92
2022-08-07T14:31:57.811Z,3.42
2022-08-07T14:34:29.953Z,2.60
2022-08-07T14:37:02.000Z,2.72
2022-08-07T14:40:17.437Z,2.78
2022-08-07T14:42:32.281Z,2.53
2022-08-07T14:45:21.212Z,3.88
2022-08-07T14:50:43.036Z,3.30
2022-08-07T14:53:11.142Z,3.70
2022-08-07T14:58:34.829Z,2.78
2022-08-07T15:01:21.896Z,3.95
2022-08-07T15:03:51.596Z,3.03
2022-08-07T15:06:28.563Z,2.33
2022-08-07T15:08:56.251Z,4.00
2022-08-07T15:11:54.455Z,2.88
2022-08-07T15:14:18.196Z,2.97
2022-08-07T15:16:55.240Z,3.97
2022-08-07T15:19:44.105Z,3.13
2022-08-07T15:22:23.081Z,2.60
2022-08-07T15:28:30.990Z,2.70
2022-08-07T15:31:04.739Z,3.08
2022-08-07T15:33:33.320Z,2.72
2022-08-07T15:36:05.056Z,3.03
2022-08-07T15:38:51.042Z,2.50
2022-08-07T15:42:45.115Z,3.13
2022-08-07T15:44:15.284Z,2.80
2022-08-07T15:46:47.426Z,4.32
2022-08-07T15:50:04.054Z,3.15
2022-08-07T15:52:30.296Z,5.50
2022-08-07T15:55:02.670Z,4.07
2022-08-07T15:57:47.759Z,4.22
2022-08-07T16:00:32.004Z,2.95
2022-08-07T16:03:08.526Z,3.30
2022-08-07T16:05:51.007Z,3.10
2022-08-07T16:08:31.069Z,3.55
2022-08-07T16:11:26.965Z,3.35
2022-08-07T16:14:10.186Z,2.95
2022-08-07T16:16:49.283Z,4.00
2022-08-07T16:19:42.020Z,3.10
2022-08-07T16:22:33.805Z,3.20
2022-08-07T16:25:23.478Z,3.78
2022-08-07T16:28:03.043Z,3.00
2022-08-07T16:30:35.153Z,4.40
2022-08-07T16:34:01.473Z,4.43
2022-08-07T16:36:08.520Z,2.95
2022-08-07T16:39:01.368Z,3.10
2022-08-07T16:41:48.778Z,3.60
2022-08-07T16:45:14.182Z,4.30
2022-08-07T16:47:56.792Z,4.75
2022-08-07T16:50:48.247Z,3.05
2022-08-07T16:54:01.674Z,3.10
2022-08-07T16:56:41.068Z,3.33
2022-08-07T16:59:17.321Z,3.42
2022-08-07T17:01:51.038Z,2.97
2022-08-07T17:04:33.745Z,2.83
2022-08-07T17:07:28.357Z,6.25
2022-08-07T17:10:32.283Z,3.55
2022-08-07T17:13:19.482Z,3.50
2022-08-07T17:16:05.115Z,3.85
2022-08-07T17:18:53.729Z,4.63
2022-08-07T17:21:25.797Z,3.17
2022-08-07T17:24:14.862Z,4.07
2022-08-07T17:27:01.340Z,4.47
2022-08-07T17:30:14.386Z,3.83
2022-08-07T17:32:37.308Z,4.95
2022-08-07T17:35:49.904Z,3.60
2022-08-07T17:38:32.053Z,3.53
2022-08-07T17:42:02.774Z,3.30
2022-08-07T17:44:08.276Z,3.38
2022-08-07T17:46:45.077Z,3.20
2022-08-07T17:49:24.033Z,3.60
2022-08-07T17:52:00.664Z,4.97
2022-08-07T17:54:53.576Z,7.35
2022-08-07T17:57:58.560Z,5.65
2022-08-07T18:00:32.974Z,3.53
2022-08-07T18:03:18.341Z,4.72
2022-08-07T18:06:03.031Z,3.45
2022-08-07T18:09:00.758Z,4.18
2022-08-07T18:12:08.144Z,3.13
2022-08-07T18:14:37.665Z,3.80
2022-08-07T18:18:36.503Z,3.47
2022-08-07T18:21:10.404Z,3.60
2022-08-07T18:23:06.933Z,3.85
2022-08-07T18:26:00.962Z,3.17
2022-08-07T18:28:58.693Z,3.08
2022-08-07T18:31:50.088Z,4.18
2022-08-07T18:34:35.902Z,3.30
2022-08-07T18:38:57.225Z,5.70
2022-08-07T18:40:38.817Z,3.35
2022-08-07T18:43:37.135Z,3.45
2022-08-07T18:46:25.764Z,3.65
2022-08-07T18:50:32.459Z,3.10
2022-08-07T18:52:37.902Z,3.22
2022-08-07T18:55:40.208Z,2.95
2022-08-07T18:58:04.465Z,3.67
2022-08-07T19:00:41.170Z,3.38
2022-08-07T19:03:16.388Z,4.38
2022-08-07T19:06:02.017Z,4.40
2022-08-07T19:08:34.851Z,4.93
2022-08-07T19:11:35.321Z,6.85
2022-08-07T19:14:11.542Z,3.40
2022-08-07T19:17:04.930Z,3.70
2022-08-07T19:19:51.072Z,5.13
2022-08-07T19:22:31.124Z,3.75
2022-08-07T19:25:06.316Z,6.82
2022-08-07T19:28:58.313Z,3.85
2022-08-07T19:31:06.451Z,5.60
2022-08-07T19:33:14.991Z,3.92
2022-08-07T19:35:44.717Z,5.68
2022-08-07T19:38:16.995Z,3.45
2022-08-07T19:40:50.139Z,3.47
2022-08-07T19:43:50.277Z,5.72
2022-08-07T19:46:26.331Z,5.10
2022-08-07T19:49:00.851Z,3.95
2022-08-07T19:51:52.902Z,11.88
2022-08-07T19:54:31.044Z,9.90
2022-08-07T19:58:02.492Z,7.78
2022-08-07T20:00:02.788Z,9.43
2022-08-07T20:02:39.392Z,9.25
2022-08-07T20:05:08.671Z,5.13
2022-08-07T20:07:47.609Z,7.30
2022-08-07T20:10:35.306Z,7.78
2022-08-07T20:13:22.703Z,4.65
2022-08-07T20:15:53.999Z,4.60
2022-08-07T20:18:32.769Z,6.78
2022-08-07T20:21:02.485Z,6.78
2022-08-07T20:23:41.815Z,6.15
2022-08-07T20:26:29.538Z,6.80
2022-08-07T20:29:10.152Z,6.72
2022-08-07T20:31:42.466Z,5.00
2022-08-07T20:34:10.236Z,4.63
2022-08-07T20:36:43.204Z,4.95
2022-08-07T20:39:31.090Z,4.85
2022-08-07T20:42:12.344Z,4.32
2022-08-07T20:44:45.601Z,6.25
2022-08-07T20:47:18.815Z,5.80
2022-08-07T20:50:00.291Z,4.40
2022-08-07T20:52:51.196Z,5.32
2022-08-07T20:55:23.826Z,5.07
2022-08-07T20:58:04.046Z,4.50
2022-08-07T21:00:46.475Z,4.90
2022-08-07T21:03:19.270Z,4.85
2022-08-07T21:06:22.307Z,5.43
2022-08-07T21:09:13.929Z,6.38
2022-08-07T21:11:50.072Z,4.88
2022-08-07T21:14:32.667Z,4.53
2022-08-07T21:18:00.864Z,4.32
2022-08-07T21:20:00.930Z,6.50
2022-08-07T21:22:44.679Z,6.75
2022-08-07T21:25:18.100Z,8.90
2022-08-07T21:27:54.671Z,5.63
2022-08-07T21:30:36.234Z,5.10
2022-08-07T21:33:13.947Z,5.47
2022-08-07T21:36:05.511Z,5.57
2022-08-07T21:38:55.404Z,6.55
2022-08-07T21:41:38.154Z,4.40
2022-08-07T21:44:28.362Z,7.47
2022-08-07T21:47:00.696Z,4.82
2022-08-07T21:50:02.900Z,5.40
2022-08-07T21:52:39.686Z,6.50
2022-08-07T21:55:30.416Z,6.20
2022-08-07T21:58:03.828Z,6.80
2022-08-07T22:00:32.369Z,5.55
2022-08-07T22:03:05.517Z,4.50
2022-08-07T22:05:45.352Z,6.18
2022-08-07T22:08:18.616Z,5.47
2022-08-07T22:10:50.112Z,6.85
2022-08-07T22:13:24.290Z,8.43
2022-08-07T22:16:41.561Z,6.15
2022-08-07T22:19:29.443Z,5.45
2022-08-07T22:22:28.901Z,3.60
2022-08-07T22:25:07.629Z,4.30
2022-08-07T22:28:15.120Z,3.30
2022-08-07T22:31:06.837Z,3.42
2022-08-07T22:33:57.004Z,2.53
2022-08-07T22:36:34.114Z,2.78
2022-08-07T22:39:24.811Z,2.70
2022-08-07T22:42:53.783Z,3.00
2022-08-07T22:45:21.942Z,4.15
2022-08-07T22:48:02.316Z,2.50
2022-08-07T22:50:39.937Z,2.72
2022-08-07T22:53:15.283Z,2.92
2022-08-07T22:55:55.068Z,2.40
2022-08-07T22:58:41.814Z,3.63
2022-08-07T23:01:09.356Z,2.40
2022-08-07T23:03:58.170Z,2.85
2022-08-07T23:06:51.514Z,2.88
2022-08-07T23:10:05.864Z,2.83
2022-08-07T23:12:43.809Z,2.55
2022-08-07T23:16:04.605Z,2.50
2022-08-07T23:18:27.472Z,2.40
2022-08-07T23:21:05.774Z,3.92
2022-08-07T23:24:06.858Z,3.03
2022-08-07T23:26:26.294Z,2.40
2022-08-07T23:29:03.528Z,2.58
2022-08-07T23:34:18.597Z,4.72
2022-08-07T23:35:01.188Z,3.85
2022-08-07T23:38:00.536Z,3.55
2022-08-07T23:40:36.279Z,3.35
2022-08-07T23:43:07.751Z,3.63
2022-08-07T23:46:10.437Z,2.35
2022-08-07T23:48:41.883Z,2.25
2022-08-07T23:53:00.428Z,2.38
2022-08-07T23:54:19.958Z,2.42
2022-08-07T23:57:09.600Z,3.22
